Terminal Aerodrome Forecast
Issued by NWS Quad Cities IA IL

Current Version | Previous Version | Text Only | Print | Product List | Glossary On
Versions: 1 2 3 4 5 6 7 8 9 10 11 12 13 14 15 16 17
511
FTUS43 KDVN 112322
TAFMLI
TAF
KMLI 112322Z 1200/1224 VRB03KT P6SM OVC120
     FM120500 24006KT 6SM -SN OVC040
      TEMPO 1209/1212 5SM -SN BKN025
     FM121500 30009KT P6SM OVC025
     FM121800 32014G22KT P6SM BKN050=

USA.gov is the U.S. government's official web portal to all federal, state and local government web resources and services.